METAR AND TAF INFORMATION
METAR FOR LFPN
ADDS - METARS form results

(0346 UTC 19 January 2019)
Data provider http://aviationweather.gov/metar/data/
 
METAR text: LFPN 190330Z AUTO 12007KT CAVOK M02/M03 Q1013
Conditions at: LFPN (TOUSSUS LE NOBLE, FR) observed 0330 UTC 19 January 2019
Temperature: -2.0°C (28°F)
Dewpoint: -3.0°C (27°F) [RH = 93%]
Pressure (altimeter): 29.91 inches Hg (1013.0 mb)
Winds: from the ESE (120 degrees) at 8 MPH (7 knots; 3.6 m/s)
Visibility: 6 or more miles (10+ km)
Ceiling: ceiling and visibility are OK
Clouds: unknown
Weather: no significant weather observed at this time

METAR text: LFPN 190300Z AUTO 13007KT CAVOK M02/M03 Q1014
Conditions at: LFPN (TOUSSUS LE NOBLE, FR) observed 0300 UTC 19 January 2019
Temperature: -2.0°C (28°F)
Dewpoint: -3.0°C (27°F) [RH = 93%]
Pressure (altimeter): 29.94 inches Hg (1014.0 mb)
Winds: from the SE (130 degrees) at 8 MPH (7 knots; 3.6 m/s)
Visibility: 6 or more miles (10+ km)
Ceiling: ceiling and visibility are OK
Clouds: unknown
Weather: no significant weather observed at this time

Forecast for: LFPN (TOUSSUS LE NOBLE, FR)
Text: TAF LFPN 181700Z 1818/1903 16006KT CAVOK
Forecast period: 1800 UTC 18 January 2019 to 0300 UTC 19 January 2019
Forecast type: FROM: standard forecast or significant change
Winds: from the SSE (160 degrees) at 7 MPH (6 knots; 3.1 m/s)
Visibility: 6 or more miles 10+ km)
Ceiling: unknown
Clouds: missing
Weather: NSW  (no significant weather)
Text: PROB30
Forecast period: 0000 to 0300 UTC 19 January 2019
Forecast type: TEMPORARY: The following changes expected for less than half the time period
Visibility: 1.86 miles (2.99 km)
Ceiling: at least 12,000 feet AGL
Clouds: scattered clouds at 600 feet AGL
Weather: BR  (mist)

 AIRPORT MAP

 RUNWAY INFORMATION
Runway 07L Runway length 3609 ft Runway width 98 ft
Runway elevation 538 ft Runway displaced threshold 0 ft Runway heading 70
Runway 25R Runway length 3609 ft Runway width 98 ft
Runway elevation 503 ft Runway displaced threshold 0 ft Runway heading 250
Runway 07R Runway length 3445 ft Runway width 98 ft
Runway elevation 536 ft Runway displaced threshold 0 ft Runway heading 70
Runway 25L Runway length 3445 ft Runway width 98 ft
Runway elevation 499 ft Runway displaced threshold 0 ft Runway heading 250

 AIRPORT FREQUENCIES
Type ATIS Name ATIS Frequency 127.475 MHZ
Type GND Name GND Frequency 121.85 MHZ
Type TWR Name TWR Frequency 119.3 MHZ

 AIRPORT NEAR NAVIGATION AIDS
Type VOR Name Toussus Frequency 108250 KHZ



Powered by Virtual Airlines Manager [v2.6.2]